CW1502 Weather Reports


Display with metric or nautical units.
time (UTC)temp
F
wind
direction
speed
MPH
gust
MPH
rain 1hr
in
rain 24hr
in
rain mn
in
humidity
%
barometer
mb
20260509080048 52 0 0.0 0.0 0.00 0.00 0.00 74 1003.9
20260509074540 52 0 0.0 1.0 0.00 0.00 0.00 71 1004.1
20260509073044 51 0 0.0 0.0 0.00 0.00 0.00 67 1004.2
20260509071538 50 0 0.0 0.0 0.00 0.00 0.00 61 1004.6
20260509070038 50 0 0.0 0.0 0.00 0.00 0.00 57 1004.7
20260509064541 51 0 0.0 0.0 0.00 0.00 0.00 54 1004.8
20260509063047 51 0 0.0 0.0 0.00 0.00 0.00 51 1004.9
20260509061546 50 0 0.0 0.0 0.00 0.00 0.00 48 1005.0
20260509060043 50 0 0.0 0.0 0.00 0.00 0.00 46 1005.1
20260509054540 50 0 0.0 0.0 0.00 0.00 0.00 45 1005.3
20260509053103 50 0 0.0 0.0 0.00 0.00 0.00 46 1005.4
20260509051544 49 0 0.0 0.0 0.00 0.00 0.00 46 1005.3
20260509050037 48 0 0.0 0.0 0.00 0.00 0.00 48 1005.4
20260509044540 47 0 0.0 0.0 0.00 0.00 0.00 49 1005.5
20260509043055 47 0 0.0 0.0 0.00 0.00 0.00 51 1005.6
20260509041553 47 0 0.0 0.0 0.00 0.00 0.00 49 1005.7
20260509040039 48 0 0.0 0.0 0.00 0.00 0.00 48 1005.8
20260509034550 48 0 0.0 0.0 0.00 0.00 0.00 47 1006.1
20260509033037 49 0 0.0 0.0 0.00 0.00 0.00 46 1006.1
20260509031542 49 0 0.0 0.0 0.00 0.00 0.00 46 1006.2
20260509030039 50 0 0.0 0.0 0.00 0.00 0.00 44 1006.4
20260509024538 51 0 0.0 0.0 0.00 0.00 0.00 44 1006.6
20260509023038 51 0 0.0 0.0 0.00 0.00 0.00 44 1006.7
20260509021538 52 0 0.0 0.0 0.00 0.00 0.00 44 1006.7
20260509020051 53 0 0.0 0.0 0.00 0.00 0.00 44 1006.6
20260509014539 54 0 0.0 0.0 0.00 0.00 0.00 42 1006.5
20260509013048 55 0 0.0 0.0 0.00 0.00 0.00 40 1006.5
20260509011538 57 0 0.0 0.0 0.00 0.00 0.00 36 1006.5
20260509010050 58 0 0.0 0.0 0.00 0.00 0.00 34 1006.6
20260509004537 59 0 0.0 0.0 0.00 0.00 0.00 31 1006.6
20260509003040 60 0 0.0 0.0 0.00 0.00 0.00 30 1006.7
20260509001538 60 0 0.0 0.0 0.00 0.00 0.00 30 1006.8
20260509000037 61 0 0.0 0.0 0.00 0.00 0.00 30 1007.0
20260508234538 62 0 0.0 1.0 0.00 0.00 0.00 29 1007.1
20260508233044 62 0 0.0 5.0 0.00 0.00 0.00 29 1007.2
20260508231538 63 0 0.0 10.0 0.00 0.00 0.00 28 1007.4
20260508230056 63 0 0.0 4.0 0.00 0.00 0.00 29 1007.3
20260508224542 63 0 0.0 5.0 0.00 0.00 0.00 30 1007.3
20260508223039 63 0 1.0 10.0 0.00 0.00 0.00 29 1007.3
20260508221548 63 262 1.0 11.0 0.00 0.00 0.00 29 1007.4
20260508220039 63 293 0.0 10.0 0.00 0.00 0.00 29 1007.4
20260508214537 63 0 0.0 10.0 0.00 0.00 0.00 30 1007.3
20260508213038 63 0 0.0 10.0 0.00 0.00 0.00 28 1007.4
20260508211540 63 0 0.0 11.0 0.00 0.00 0.00 28 1007.5
20260508210040 63 278 1.0 10.0 0.00 0.00 0.00 28 1007.6
20260508204547 63 0 0.0 9.0 0.00 0.00 0.00 30 1007.8
20260508203037 63 0 2.0 11.0 0.00 0.00 0.00 28 1008.0
20260508201541 63 0 3.0 12.0 0.00 0.00 0.00 30 1008.1
20260508200050 63 0 2.0 10.0 0.00 0.00 0.00 29 1008.3
20260508194538 63 0 2.0 13.0 0.00 0.00 0.00 31 1008.5
20260508193038 63 352 2.0 11.0 0.00 0.00 0.00 28 1008.5
20260508191550 64 0 4.0 9.0 0.00 0.00 0.00 30 1008.7
20260508190045 64 277 0.0 5.0 0.00 0.00 0.00 28 1008.8
20260508184539 65 244 1.0 10.0 0.00 0.00 0.00 29 1008.8
20260508183037 65 0 0.0 8.0 0.00 0.00 0.00 27 1009.1
20260508181538 65 0 2.0 10.0 0.00 0.00 0.00 28 1009.2
20260508180038 66 0 0.0 12.0 0.00 0.00 0.00 28 1009.2
20260508174542 66 0 0.0 5.0 0.00 0.00 0.00 28 1009.4
20260508173038 66 0 0.0 10.0 0.00 0.00 0.00 28 1009.7
20260508171538 66 0 0.0 8.0 0.00 0.00 0.00 28 1009.9
20260508170038 66 0 1.0 10.0 0.00 0.00 0.00 31 1010.2
20260508164538 65 0 0.0 8.0 0.00 0.00 0.00 31 1010.6
20260508163037 63 0 1.0 12.0 0.00 0.00 0.00 34 1010.8
20260508161540 63 280 1.0 9.0 0.00 0.00 0.00 33 1010.8
20260508160039 63 258 0.0 9.0 0.00 0.00 0.00 36 1010.9
20260508154538 63 0 2.0 10.0 0.00 0.00 0.00 36 1010.9
20260508153039 62 0 0.0 9.0 0.00 0.00 0.00 37 1011.0
20260508151537 62 0 0.0 7.0 0.00 0.00 0.00 40 1011.1
20260508150042 60 0 0.0 8.0 0.00 0.00 0.00 43 1011.3
20260508144543 59 0 0.0 7.0 0.00 0.00 0.00 52 1011.4
20260508143039 56 0 0.0 4.0 0.00 0.00 0.00 61 1011.5
20260508141540 53 0 0.0 0.0 0.00 0.00 0.00 75 1011.6
20260508140040 50 0 0.0 0.0 0.00 0.00 0.00 82 1011.6
20260508134539 47 0 0.0 0.0 0.00 0.00 0.00 85 1011.6
20260508133045 45 0 0.0 0.0 0.00 0.00 0.00 87 1011.7
20260508131545 43 0 0.0 0.0 0.00 0.00 0.00 87 1011.8
20260508130104 41 0 0.0 0.0 0.00 0.00 0.00 87 1011.8
20260508124539 40 0 0.0 0.0 0.00 0.00 0.00 86 1012.0
20260508123045 38 0 0.0 0.0 0.00 0.00 0.00 86 1012.1
20260508121538 37 0 0.0 0.0 0.00 0.00 0.00 85 1011.8
20260508120044 36 0 0.0 0.0 0.00 0.00 0.00 84 1011.7
20260508114543 35 0 0.0 0.0 0.00 0.00 0.00 83 1011.6
20260508113049 35 0 0.0 0.0 0.00 0.00 0.00 82 1011.5
20260508111538 35 0 0.0 0.0 0.00 0.00 0.00 81 1011.4
20260508110037 35 0 0.0 0.0 0.00 0.00 0.00 80 1011.4
20260508104603 35 0 0.0 0.0 0.00 0.00 0.00 80 1011.2
20260508103044 35 0 0.0 0.0 0.00 0.00 0.00 80 1011.1
20260508101541 35 0 0.0 0.0 0.00 0.00 0.00 79 1011.1
20260508100039 36 0 0.0 0.0 0.00 0.00 0.00 79 1011.2
20260508094544 36 0 0.0 0.0 0.00 0.00 0.00 79 1011.2
20260508093038 36 0 0.0 0.0 0.00 0.00 0.00 79 1011.4
20260508091537 36 0 0.0 0.0 0.00 0.00 0.00 79 1011.5
20260508084539 37 0 0.0 0.0 0.00 0.00 0.00 79 1011.4
20260508083056 37 0 0.0 0.0 0.00 0.00 0.00 78 1011.4
20260508081551 38 0 0.0 0.0 0.00 0.00 0.00 78 1011.5